Ingonish, Canada
Current Conditions -  °F | °C
As of 11:00 PM on Saturday 22 Nov 2014 (Local Time) from CYQY Reporting Station
Broken Clouds Broken Clouds  
Wind Chill: 20°   Ceiling: 2800
Heat Index: 30°   Visibility: 15mi
Dew Point: 23°   Wind: 14mph
Humidity: 75%   Direction: 220°SW
Pressure: 29.81"   Gusts: NA
Location:  46.69°N, 60.37°W
Report Text: CYQY 230300Z 22012KT 15SM BKN028 BKN100 M01/M05 A2981 RMK SC5AC2 SLP098
Loading
Personal Weather Stations






























Interactive Weather Map New forecast layout! Learn more

10-Day Weather Forecast

Advertisements
Track Severe Weather on mobile